Terminal Aerodrome Forecast
Issued by NWS

Current Version | Previous Version | Graphics & Text | Print | Product List | Glossary On
Versions: 1 2 3 4 5 6 7 8 9 10 11 12 13 14 15 16 17 18 19 20 21 22 23 24 25 26
468
FTUS41 KPBZ 011720
TAFMGW
TAF
KMGW 011720Z 0118/0218 25005KT P6SM VCSH BKN035
     FM012000 24007KT P6SM VCTS BKN035CB
      TEMPO 0120/0123 TSRA OVC030CB
     FM020500 VRB03KT P6SM -SHRA OVC030=

USA.gov is the U.S. government's official web portal to all federal, state and local government web resources and services.